Pagrindinis puslapis
METAR-TAF:

METAR-TAF

Oro uostai :

Fairbanks, Aliaska, Jungtinės Amerikos Valstijos

platuma: 64-48-14N, ilguma: 147-52-34W, Aukštis: 132 m

Dabartinis oras

Ataskaita buvo paskelbta 25 minutes, ne 10:53 UTC
Ramus vėjas
Temperatūra 11°C
Drėgmė 71%
Slėgis 1003 hPa
Matomumas: 16.1 km
Mažai debesys ne aukštis 7000 ft
Išsisklaidę debesys ne aukštis 10000 ft
Su prošvaistėmis ne aukštis 18000 ft

METAR: PAFA 311053Z 00000KT 10SM FEW070 SCT100 BKN180 11/06 A2963 RMK AO2 SLP037 ACSL N T01110056

Laikas: 03:18 (11:18 UTC)

Prognozė

Ataskaita buvo paskelbta 5 valandos ir 43 minutes, ne 05:35 UTC
Prognozė galioja nuo 31 metu 06 UTC su 01 metu 12 UTC
Vėjas 10 kt iš Šiaurės Rytų
Matomumas: 10 km
Mažai debesys ne aukštis 4000 ft
Išsisklaidę debesys ne aukštis 10000 ft
Nuo 31 metu 2000 UTC
Vėjas 12 kt iš Rytų/Šiaurės Rytų su gūsio iki 18 kt
Matomumas: 10 km
Išsisklaidę debesys ne aukštis 10000 ft
Su prošvaistėmis ne aukštis 20000 ft

TAF: PAFA 310535Z 3106/0112 04010KT P6SM FEW040 SCT100 FM312000 07012G18KT P6SM SCT100 BKN200

Orai ataskaitas ir orų prognozės (METAR, TAF).

turimą stotys yra geltonos ir raudonos taškus žemėlapyje.

Perkelti pele per norėdami pamatyti stoties vardą.

Tada spustelėkite, norėdami matyti oro stebėjimo ir prognozės.

Norėdami pakeisti žemėlapį: spustelėkite ant žalios mygtukų su juodo kryžiaus žemyn,; žalią mygtuką su brūkšneliu, jei norite nutolinti; arba žalių rodyklių gretimoms žemėlapius.


METAR-TAF: